SondeTracker

Meteorological Radiosondes Database

Operations

Sounding was ended - last measurement: 2022-12-06 01:27:19z

MAP
About Radiosonde

Number: U3130972

Launch Site: Galeão (BR)

Type: RS41

AUX: NO

Frequency: 405.301 MHz

Max Speed: 113 km/h at 12453 m

Average Speed: 43.58 km/h

Max Altitude: 17377 m

Average Ascent Speed: 6.65 m/s

Average Descent Speed: 7.42 m/s

Status: UNKNOWN

Status Changes
Launch Site Type AUX Frequency Status Finder Landing Point Description Changes made by
APRS Statistics

Received Frames: 88

First Frame [UTC]: 2022-12-06 00:09:09z

Last Frame [UTC]: 2022-12-06 01:27:19z

Receivers: PU1XMG-14

Flight Time: 01:18:10 h

Distance From First Measurement: 39.71 km

Nearest City: Petrópolis (BR) [6.47 km]

Nearest Hunter: PU1JDI-11 [50.09 km]

Ground Altitude: 1006 m

Distance from QTH: 0.00 km

APRS Data
Receiver Number Date/Time [UTC] φ λ Course [°] Speed [km/h] Altitude [m] Description
PU1XMG-14U31309722022-12-06 01:27:19-22.4692-43.1344194351469Clb=-4.3m/s t=16.3C h=92.0% p=856.4hPa 405.301 MHz Type=RS41-SGP ser=U3130972 Rastreio por PU1XMG https://sondehub.org/U3130972 & https://radiosondy.info/sond
PU1XMG-14U31309722022-12-06 01:26:48-22.4684-43.1342192351507Clb=-4.2m/s t=16.2C h=84.1% p=852.6hPa 405.301 MHz Type=RS41-SGP ser=U3130972 Rastreio por PU1XMG https://sondehub.org/U3130972 & https://radiosondy.info/sond
PU1XMG-14U31309722022-12-06 01:26:17-22.4655-43.1335193351635Clb=-4.0m/s t=15.2C h=87.2% p=840.0hPa 405.301 MHz Type=RS41-SGP ser=U3130972 Rastreio por PU1XMG https://sondehub.org/U3130972 & https://radiosondy.info/sond
PU1XMG-14U31309722022-12-06 01:25:46-22.4626-43.1327199371762Clb=-4.0m/s t=14.3C h=95.7% p=827.8hPa 405.301 MHz Type=RS41-SGP ser=U3130972 Rastreio por PU1XMG https://sondehub.org/U3130972 & https://radiosondy.info/sond
PU1XMG-14U31309722022-12-06 01:25:15-22.4597-43.1318198371881Clb=-4.0m/s t=13.8C h=95.5% p=816.2hPa 405.301 MHz Type=RS41-SGP ser=U3130972 Rastreio por PU1XMG https://sondehub.org/U3130972 & https://radiosondy.info/sond
PU1XMG-14U31309722022-12-06 01:24:44-22.4569-43.1312186392026Clb=-4.6m/s t=12.8C h=98.0% p=802.2hPa 405.301 MHz Type=RS41-SGP ser=U3130972 Rastreio por PU1XMG https://sondehub.org/U3130972 & https://radiosondy.info/sond
PU1XMG-14U31309722022-12-06 01:24:13-22.4543-43.1311184242172Clb=-4.4m/s t=13.5C h=82.8% p=788.5hPa 405.301 MHz Type=RS41-SGP ser=U3130972 Rastreio por PU1XMG https://sondehub.org/U3130972 & https://radiosondy.info/sond
PU1XMG-14U31309722022-12-06 01:23:42-22.4524-43.131188202370Clb=-8.0m/s t=13.0C h=84.9% p=770.3hPa 405.301 MHz Type=RS41-SGP ser=U3130972 Rastreio por PU1XMG https://sondehub.org/U3130972 & https://radiosondy.info/sond
PU1XMG-14U31309722022-12-06 01:23:11-22.451-43.1307191152567Clb=-7.2m/s t=11.9C h=86.0% p=752.3hPa 405.301 MHz Type=RS41-SGP ser=U3130972 Rastreio por PU1XMG https://sondehub.org/U3130972 & https://radiosondy.info/sond
PU1XMG-14U31309722022-12-06 01:22:40-22.45-43.1308167112827Clb=-6.1m/s t=10.3C h=78.8% p=729.9hPa 405.301 MHz Type=RS41-SGP ser=U3130972 Rastreio por PU1XMG https://sondehub.org/U3130972 & https://radiosondy.info/sond
PU1XMG-14U31309722022-12-06 01:21:38-22.4486-43.1309191133162Clb=-5.5m/s t=8.2C h=83.4% p=701.0hPa 405.301 MHz Type=RS41-SGP ser=U3130972 Rastreio por PU1XMG https://sondehub.org/U3130972 & https://radiosondy.info/sonde
PU1XMG-14U31309722022-12-06 01:20:36-22.4462-43.1311168173485Clb=-5.7m/s t=5.9C h=93.5% p=673.9hPa 405.301 MHz Type=RS41-SGP ser=U3130972 Rastreio por PU1XMG https://sondehub.org/U3130972 & https://radiosondy.info/sonde
PU1XMG-14U31309722022-12-06 01:20:04-22.4449-43.1315160173659Clb=-5.8m/s t=4.8C h=96.2% p=660.0hPa 405.301 MHz Type=RS41-SGP ser=U3130972 Rastreio por PU1XMG https://sondehub.org/U3130972 & https://radiosondy.info/sonde
PU1XMG-14U31309722022-12-06 01:19:02-22.4429-43.1327144134008Clb=-5.9m/s t=3.2C h=95.3% p=632.6hPa 405.301 MHz Type=RS41-SGP ser=U3130972 Rastreio por PU1XMG https://sondehub.org/U3130972 & https://radiosondy.info/sonde
PU1XMG-14U31309722022-12-06 01:18:00-22.4412-43.133817094390Clb=-6.9m/s t=1.1C h=97.5% p=603.6hPa 405.301 MHz Type=RS41-SGP ser=U3130972 Rastreio por PU1XMG https://sondehub.org/U3130972 & https://radiosondy.info/sonde
PU1XMG-14U31309722022-12-06 01:16:58-22.4397-43.1346155134805Clb=-6.5m/s t=-1.2C h=99.4% p=573.4hPa 405.301 MHz Type=RS41-SGP ser=U3130972 Rastreio por PU1XMG https://sondehub.org/U3130972 & https://radiosondy.info/sond
PU1XMG-14U31309722022-12-06 01:15:56-22.438-43.1356147155251Clb=-7.9m/s t=-2.9C h=88.2% p=542.1hPa 405.301 MHz Type=RS41-SGP ser=U3130972 Rastreio por PU1XMG https://sondehub.org/U3130972 & https://radiosondy.info/sond
PU1XMG-14U31309722022-12-06 01:14:54-22.4361-43.1372110135735Clb=-9.6m/s t=-5.6C h=93.9% p=509.6hPa 405.301 MHz Type=RS41-SGP ser=U3130972 Rastreio por PU1XMG https://sondehub.org/U3130972 & https://radiosondy.info/sond
PU1XMG-14U31309722022-12-06 01:13:52-22.4361-43.139686156272Clb=-8.1m/s t=-8.5C h=90.3% p=476.3hPa 405.301 MHz Type=RS41-SGP ser=U3130972 Rastreio por PU1XMG https://sondehub.org/U3130972 & https://radiosondy.info/sond
PU1XMG-14U31309722022-12-06 01:12:18-22.4381-43.141917137031Clb=-6.2m/s t=-13.1C h=88.8% p=431.3hPa 405.301 MHz Type=RS41-SGP ser=U3130972 Rastreio por PU1XMG https://sondehub.org/U3130972 & https://radiosondy.info/son
PU1XMG-14U31309722022-12-06 01:11:16-22.4395-43.143842157551Clb=-9.3m/s t=-16.6C h=84.7% p=403.3hPa 405.301 MHz Type=RS41-SGP ser=U3130972 Rastreio por PU1XMG https://sondehub.org/U3130972 & https://radiosondy.info/son
PU1XMG-14U31309722022-12-06 01:10:14-22.441-43.14770288079Clb=-8.4m/s t=-20.3C h=91.1% p=375.6hPa 405.301 MHz Type=RS41-SGP ser=U3130972 Rastreio por PU1XMG https://sondehub.org/U3130972 & https://radiosondy.info/son
PU1XMG-14U31309722022-12-06 01:09:12-22.4424-43.151957338553Clb=-10.8m/s t=-23.3C h=81.6% p=352.4hPa 405.301 MHz Type=RS41-SGP ser=U3130972 Rastreio por PU1XMG https://sondehub.org/U3130972 & https://radiosondy.info/so
PU1XMG-14U31309722022-12-06 01:08:10-22.4463-43.156642419129Clb=-10.6m/s t=-28.1C h=100.0% p=325.5hPa 405.301 MHz Type=RS41-SGP ser=U3130972 Rastreio por PU1XMG https://sondehub.org/U3130972 & https://radiosondy.info/s
PU1XMG-14U31309722022-12-06 01:07:08-22.4503-43.161635399775Clb=-10.4m/s t=-32.3C h=43.8% p=297.3hPa 405.301 MHz Type=RS41-SGP ser=U3130972 Rastreio por PU1XMG https://sondehub.org/U3130972 & https://radiosondy.info/so
PU1XMG-14U31309722022-12-06 01:06:06-22.4579-43.1649176310294Clb=-6.7m/s t=-36.7C h=39.2% p=276.4hPa 405.301 MHz Type=RS41-SGP ser=U3130972 Rastreio por PU1XMG https://sondehub.org/U3130972 & https://radiosondy.info/son
PU1XMG-14U31309722022-12-06 01:05:04-22.4689-43.1692238710821Clb=-11.5m/s t=-40.6C h=27.1% p=256.1hPa 405.301 MHz Type=RS41-SGP ser=U3130972 Rastreio por PU1XMG https://sondehub.org/U3130972 & https://radiosondy.info/so
PU1XMG-14U31309722022-12-06 01:04:02-22.4814-43.1755259311442Clb=-11.1m/s t=-46.0C h=62.1% p=233.9hPa 405.301 MHz Type=RS41-SGP ser=U3130972 Rastreio por PU1XMG https://sondehub.org/U3130972 & https://radiosondy.info/so
PU1XMG-14U31309722022-12-06 01:02:28-22.5031-43.18863011312453Clb=-9.1m/s t=-54.7C h=63.1% p=200.3hPa 405.301 MHz Type=RS41-SGP ser=U3130972 Rastreio por PU1XMG https://sondehub.org/U3130972 & https://radiosondy.info/son
PU1XMG-14U31309722022-12-06 01:01:26-22.5188-43.19812611113013Clb=-7.6m/s t=-59.3C h=57.1% p=183.3hPa 405.301 MHz Type=RS41-SGP ser=U3130972 Rastreio por PU1XMG https://sondehub.org/U3130972 & https://radiosondy.info/son
PU1XMG-14U31309722022-12-06 01:00:24-22.534-43.20512110413414Clb=-6.8m/s t=-62.0C h=33.2% p=171.9hPa 405.301 MHz Type=RS41-SGP ser=U3130972 Rastreio por PU1XMG https://sondehub.org/U3130972 & https://radiosondy.info/son
PU1XMG-14U31309722022-12-06 00:59:22-22.55-43.21081610713814Clb=-6.8m/s t=-64.8C h=33.1% p=161.2hPa 405.301 MHz Type=RS41-SGP ser=U3130972 Rastreio por PU1XMG https://sondehub.org/U3130972 & https://radiosondy.info/son
PU1XMG-14U31309722022-12-06 00:58:20-22.566-43.214448914225Clb=-6.7m/s t=-67.0C h=30.7% p=150.8hPa 405.301 MHz Type=RS41-SGP ser=U3130972 Rastreio por PU1XMG https://sondehub.org/U3130972 & https://radiosondy.info/son
PU1XMG-14U31309722022-12-06 00:57:18-22.5771-43.2153545214657Clb=-7.4m/s t=-69.7C h=32.2% p=140.4hPa 405.301 MHz Type=RS41-SGP ser=U3130972 Rastreio por PU1XMG https://sondehub.org/U3130972 & https://radiosondy.info/son
PU1XMG-14U31309722022-12-06 00:55:44-22.5903-43.21533355615349Clb=-7.7m/s t=-73.3C h=17.1% p=124.9hPa 405.301 MHz Type=RS41-SGP ser=U3130972 Rastreio por PU1XMG https://sondehub.org/U3130972 & https://radiosondy.info/son
PU1XMG-14U31309722022-12-06 00:54:42-22.5984-43.20993167015855Clb=-8.4m/s t=-72.7C h=13.1% p=114.7hPa 405.301 MHz Type=RS41-SGP ser=U3130972 Rastreio por PU1XMG https://sondehub.org/U3130972 & https://radiosondy.info/son
PU1XMG-14U31309722022-12-06 00:53:40-22.6062-43.2013157816363Clb=-8.4m/s t=-75.6C h=14.0% p=105.2hPa 405.301 MHz Type=RS41-SGP ser=U3130972 Rastreio por PU1XMG https://sondehub.org/U3130972 & https://radiosondy.info/son
PU1XMG-14U31309722022-12-06 00:52:38-22.615-43.19143078016880Clb=-8.7m/s t=-74.3C h=12.3% p=96.3hPa 405.301 MHz Type=RS41-SGP ser=U3130972 Rastreio por PU1XMG https://sondehub.org/U3130972 & https://radiosondy.info/sond
PU1XMG-14U31309722022-12-06 00:51:36-22.6217-43.17952947817377Clb=-6.3m/s t=-74.8C h=13.3% p=88.3hPa 405.301 MHz Type=RS41-SGP ser=U3130972 Rastreio por PU1XMG https://sondehub.org/U3130972 & https://radiosondy.info/sond
PU1XMG-14U31309722022-12-06 00:50:34-22.6275-43.16743027817150Clb=3.9m/s t=-74.6C h=14.8% p=91.8hPa 405.301 MHz Type=RS41-SGP ser=U3130972 Rastreio por PU1XMG https://sondehub.org/U3130972 & https://radiosondy.info/sonde
PU1XMG-14U31309722022-12-06 00:49:32-22.6343-43.15643237816807Clb=5.3m/s t=-74.7C h=16.9% p=97.4hPa 405.301 MHz Type=RS41-SGP ser=U3130972 Rastreio por PU1XMG https://sondehub.org/U3130972 & https://radiosondy.info/sonde
PU1XMG-14U31309722022-12-06 00:47:58-22.6468-43.14323156916202Clb=8.3m/s t=-74.8C h=20.3% p=108.0hPa 405.301 MHz Type=RS41-SGP ser=U3130972 Rastreio por PU1XMG https://sondehub.org/U3130972 & https://radiosondy.info/sond
PU1XMG-14U31309722022-12-06 00:46:56-22.6542-43.13543254815724Clb=7.1m/s t=-72.1C h=26.0% p=117.1hPa 405.301 MHz Type=RS41-SGP ser=U3130972 Rastreio por PU1XMG https://sondehub.org/U3130972 & https://radiosondy.info/sond
PU1XMG-14U31309722022-12-06 00:45:54-22.6617-43.13073345215286Clb=10.7m/s t=-72.8C h=38.5% p=126.0hPa 405.301 MHz Type=RS41-SGP ser=U3130972 Rastreio por PU1XMG https://sondehub.org/U3130972 & https://radiosondy.info/son
PU1XMG-14U31309722022-12-06 00:44:52-22.6698-43.130895214798Clb=9.7m/s t=-70.7C h=36.4% p=136.8hPa 405.301 MHz Type=RS41-SGP ser=U3130972 Rastreio por PU1XMG https://sondehub.org/U3130972 & https://radiosondy.info/sond
PU1XMG-14U31309722022-12-06 00:43:50-22.6797-43.132117814277Clb=11.7m/s t=-67.2C h=35.2% p=149.2hPa 405.301 MHz Type=RS41-SGP ser=U3130972 Rastreio por PU1XMG https://sondehub.org/U3130972 & https://radiosondy.info/son
PU1XMG-14U31309722022-12-06 00:42:48-22.6955-43.1361810413784Clb=6.2m/s t=-64.7C h=36.3% p=161.8hPa 405.301 MHz Type=RS41-SGP ser=U3130972 Rastreio por PU1XMG https://sondehub.org/U3130972 & https://radiosondy.info/sond
PU1XMG-14U31309722022-12-06 00:41:46-22.7107-43.14221311113308Clb=10.9m/s t=-61.1C h=37.5% p=174.6hPa 405.301 MHz Type=RS41-SGP ser=U3130972 Rastreio por PU1XMG https://sondehub.org/U3130972 & https://radiosondy.info/son
PU1XMG-14U31309722022-12-06 00:40:44-22.7258-43.15023310712851Clb=6.7m/s t=-57.7C h=59.3% p=188.0hPa 405.301 MHz Type=RS41-SGP ser=U3130972 Rastreio por PU1XMG https://sondehub.org/U3130972 & https://radiosondy.info/sond
PU1XMG-14U31309722022-12-06 00:39:42-22.7408-43.15942811312425Clb=7.2m/s t=-53.9C h=53.8% p=201.9hPa 405.301 MHz Type=RS41-SGP ser=U3130972 Rastreio por PU1XMG https://sondehub.org/U3130972 & https://radiosondy.info/sond
PU1XMG-14U31309722022-12-06 00:39:10-22.7487-43.16372810912184Clb=3.0m/s t=-52.3C h=62.4% p=208.5hPa 405.301 MHz Type=RS41-SGP ser=U3130972 Rastreio por PU1XMG https://sondehub.org/U3130972 & https://radiosondy.info/sond
PU1XMG-14U31309722022-12-06 00:38:40-22.7561-43.16833310711980Clb=4.5m/s t=-50.6C h=37.6% p=215.1hPa 405.301 MHz Type=RS41-SGP ser=U3130972 Rastreio por PU1XMG https://sondehub.org/U3130972 & https://radiosondy.info/sond
PU1XMG-14U31309722022-12-06 00:37:06-22.7772-43.1809289811389Clb=4.5m/s t=-45.6C h=16.6% p=235.1hPa 405.301 MHz Type=RS41-SGP ser=U3130972 Rastreio por PU1XMG https://sondehub.org/U3130972 & https://radiosondy.info/sond
PU1XMG-14U31309722022-12-06 00:36:04-22.79-43.1881289310986Clb=6.8m/s t=-42.1C h=21.5% p=249.5hPa 405.301 MHz Type=RS41-SGP ser=U3130972 Rastreio por PU1XMG https://sondehub.org/U3130972 & https://radiosondy.info/sond
PU1XMG-14U31309722022-12-06 00:35:02-22.8025-43.1947278110604Clb=6.6m/s t=-39.3C h=30.9% p=263.9hPa 405.301 MHz Type=RS41-SGP ser=U3130972 Rastreio por PU1XMG https://sondehub.org/U3130972 & https://radiosondy.info/sond
PU1XMG-14U31309722022-12-06 00:34:00-22.8125-43.1984234410151Clb=9.4m/s t=-35.6C h=45.2% p=281.6hPa 405.301 MHz Type=RS41-SGP ser=U3130972 Rastreio por PU1XMG https://sondehub.org/U3130972 & https://radiosondy.info/sond
PU1XMG-14U31309722022-12-06 00:32:58-22.8189-43.202751339698Clb=8.5m/s t=-31.6C h=39.4% p=300.2hPa 405.301 MHz Type=RS41-SGP ser=U3130972 Rastreio por PU1XMG https://sondehub.org/U3130972 & https://radiosondy.info/sond
PU1XMG-14U31309722022-12-06 00:31:56-22.8225-43.20756289309Clb=5.5m/s t=-28.6C h=59.6% p=317.1hPa 405.301 MHz Type=RS41-SGP ser=U3130972 Rastreio por PU1XMG https://sondehub.org/U3130972 & https://radiosondy.info/sond
PU1XMG-14U31309722022-12-06 00:30:54-22.8266-43.211430318956Clb=5.9m/s t=-26.2C h=74.0% p=333.1hPa 405.301 MHz Type=RS41-SGP ser=U3130972 Rastreio por PU1XMG https://sondehub.org/U3130972 & https://radiosondy.info/sond
PU1XMG-14U31309722022-12-06 00:30:22-22.8287-43.213459268768Clb=6.6m/s t=-25.1C h=81.3% p=341.6hPa 405.301 MHz Type=RS41-SGP ser=U3130972 Rastreio por PU1XMG https://sondehub.org/U3130972 & https://radiosondy.info/sond
PU1XMG-14U31309722022-12-06 00:29:20-22.8316-43.218575338392Clb=4.5m/s t=-21.6C h=63.7% p=359.6hPa 405.301 MHz Type=RS41-SGP ser=U3130972 Rastreio por PU1XMG https://sondehub.org/U3130972 & https://radiosondy.info/sond
PU1XMG-14U31309722022-12-06 00:28:18-22.8337-43.222481307966Clb=8.6m/s t=-20.0C h=90.4% p=380.8hPa 405.301 MHz Type=RS41-SGP ser=U3130972 Rastreio por PU1XMG https://sondehub.org/U3130972 & https://radiosondy.info/sond
PU1XMG-14U31309722022-12-06 00:27:16-22.8342-43.227681157551Clb=6.7m/s t=-17.1C h=85.7% p=402.7hPa 405.301 MHz Type=RS41-SGP ser=U3130972 Rastreio por PU1XMG https://sondehub.org/U3130972 & https://radiosondy.info/sond
PU1XMG-14U31309722022-12-06 00:26:14-22.8366-43.231145377133Clb=4.9m/s t=-13.4C h=68.8% p=425.1hPa 405.301 MHz Type=RS41-SGP ser=U3130972 Rastreio por PU1XMG https://sondehub.org/U3130972 & https://radiosondy.info/sond
PU1XMG-14U31309722022-12-06 00:25:12-22.8393-43.23298306678Clb=4.3m/s t=-10.7C h=51.3% p=451.2hPa 405.301 MHz Type=RS41-SGP ser=U3130972 Rastreio por PU1XMG https://sondehub.org/U3130972 & https://radiosondy.info/sond
PU1XMG-14U31309722022-12-06 00:24:10-22.8403-43.23355296261Clb=8.1m/s t=-8.5C h=81.9% p=476.1hPa 405.301 MHz Type=RS41-SGP ser=U3130972 Rastreio por PU1XMG https://sondehub.org/U3130972 & https://radiosondy.info/sonde
PU1XMG-14U31309722022-12-06 00:23:08-22.8401-43.2361132195824Clb=6.0m/s t=-6.6C h=98.4% p=503.3hPa 405.301 MHz Type=RS41-SGP ser=U3130972 Rastreio por PU1XMG https://sondehub.org/U3130972 & https://radiosondy.info/sonde
PU1XMG-14U31309722022-12-06 00:22:06-22.8388-43.237719175388Clb=7.0m/s t=-4.2C h=98.7% p=531.7hPa 405.301 MHz Type=RS41-SGP ser=U3130972 Rastreio por PU1XMG https://sondehub.org/U3130972 & https://radiosondy.info/sonde
PU1XMG-14U31309722022-12-06 00:21:34-22.8382-43.237819995169Clb=4.2m/s t=-2.6C h=96.8% p=546.7hPa 405.301 MHz Type=RS41-SGP ser=U3130972 Rastreio por PU1XMG https://sondehub.org/U3130972 & https://radiosondy.info/sonde
PU1XMG-14U31309722022-12-06 00:20:32-22.8356-43.2393156154730Clb=5.9m/s t=-0.4C h=94.6% p=577.5hPa 405.301 MHz Type=RS41-SGP ser=U3130972 Rastreio por PU1XMG https://sondehub.org/U3130972 & https://radiosondy.info/sonde
PU1XMG-14U31309722022-12-06 00:19:30-22.8336-43.240316794305Clb=6.4m/s t=1.6C h=94.3% p=608.8hPa 405.301 MHz Type=RS41-SGP ser=U3130972 Rastreio por PU1XMG https://sondehub.org/U3130972 & https://radiosondy.info/sonde.
PU1XMG-14U31309722022-12-06 00:18:28-22.8319-43.2429111223886Clb=6.7m/s t=3.8C h=93.3% p=641.0hPa 405.301 MHz Type=RS41-SGP ser=U3130972 Rastreio por PU1XMG https://sondehub.org/U3130972 & https://radiosondy.info/sonde.
PU1XMG-14U31309722022-12-06 00:17:26-22.8308-43.244889153495Clb=6.3m/s t=6.2C h=93.2% p=672.1hPa 405.301 MHz Type=RS41-SGP ser=U3130972 Rastreio por PU1XMG https://sondehub.org/U3130972 & https://radiosondy.info/sonde.
PU1XMG-14U31309722022-12-06 00:16:24-22.8298-43.2467141193108Clb=5.2m/s t=8.4C h=95.6% p=704.1hPa 405.301 MHz Type=RS41-SGP ser=U3130972 Rastreio por PU1XMG https://sondehub.org/U3130972 & https://radiosondy.info/sonde.
PU1XMG-14U31309722022-12-06 00:15:53-22.8288-43.2473159172906Clb=6.1m/s t=9.4C h=95.3% p=721.4hPa 405.301 MHz Type=RS41-SGP ser=U3130972 Rastreio por PU1XMG https://sondehub.org/U3130972 & https://radiosondy.info/sonde.
PU1XMG-14U31309722022-12-06 00:15:22-22.8278-43.2475183112712Clb=8.4m/s t=10.8C h=86.2% p=738.3hPa 405.301 MHz Type=RS41-SGP ser=U3130972 Rastreio por PU1XMG https://sondehub.org/U3130972 & https://radiosondy.info/sonde
PU1XMG-14U31309722022-12-06 00:14:50-22.8272-43.247416192518Clb=5.2m/s t=12.2C h=80.7% p=755.9hPa 405.301 MHz Type=RS41-SGP ser=U3130972 Rastreio por PU1XMG https://sondehub.org/U3130972 & https://radiosondy.info/sonde
PU1XMG-14U31309722022-12-06 00:14:19-22.8264-43.247619692331Clb=7.1m/s t=13.7C h=79.6% p=772.8hPa 405.301 MHz Type=RS41-SGP ser=U3130972 Rastreio por PU1XMG https://sondehub.org/U3130972 & https://radiosondy.info/sonde
PU1XMG-14U31309722022-12-06 00:13:48-22.8258-43.247617072134Clb=6.6m/s t=15.0C h=80.0% p=791.1hPa 405.301 MHz Type=RS41-SGP ser=U3130972 Rastreio por PU1XMG https://sondehub.org/U3130972 & https://radiosondy.info/sonde
PU1XMG-14U31309722022-12-06 00:13:17-22.8251-43.247319261949Clb=4.8m/s t=16.2C h=77.5% p=808.0hPa 405.301 MHz Type=RS41-SGP ser=U3130972 Rastreio por PU1XMG https://sondehub.org/U3130972 & https://radiosondy.info/sonde
PU1XMG-14U31309722022-12-06 00:12:46-22.8243-43.2466240151766Clb=6.5m/s t=17.1C h=74.5% p=825.8hPa 405.301 MHz Type=RS41-SGP ser=U3130972 Rastreio por PU1XMG https://sondehub.org/U3130972 & https://radiosondy.info/sonde
PU1XMG-14U31309722022-12-06 00:12:15-22.8233-43.2462183201591Clb=7.5m/s t=18.1C h=71.4% p=843.0hPa 405.301 MHz Type=RS41-SGP ser=U3130972 Rastreio por PU1XMG https://sondehub.org/U3130972 & https://radiosondy.info/sonde
PU1XMG-14U31309722022-12-06 00:11:44-22.8215-43.2461183301402Clb=5.9m/s t=18.9C h=69.9% p=861.4hPa 405.301 MHz Type=RS41-SGP ser=U3130972 Rastreio por PU1XMG https://sondehub.org/U3130972 & https://radiosondy.info/sonde
PU1XMG-14U31309722022-12-06 00:11:13-22.8193-43.2463170281210Clb=7.0m/s t=20.2C h=66.5% p=880.7hPa 405.301 MHz Type=RS41-SGP ser=U3130972 Rastreio por PU1XMG https://sondehub.org/U3130972 & https://radiosondy.info/sonde
PU1XMG-14U31309722022-12-06 00:10:42-22.8173-43.2467170261008Clb=7.6m/s t=21.7C h=63.1% p=901.6hPa 405.301 MHz Type=RS41-SGP ser=U3130972 Rastreio por PU1XMG https://sondehub.org/U3130972 & https://radiosondy.info/sonde
PU1XMG-14U31309722022-12-06 00:10:11-22.8153-43.247217131799Clb=7.8m/s t=23.1C h=61.4% p=922.7hPa 405.301 MHz Type=RS41-SGP ser=U3130972 Rastreio por PU1XMG https://sondehub.org/U3130972 & https://radiosondy.info/sonde
PU1XMG-14U31309722022-12-06 00:09:40-22.8129-43.247616424616Clb=6.7m/s t=24.5C h=57.8% p=942.5hPa 405.301 MHz Type=RS41-SGP ser=U3130972 Rastreio por PU1XMG https://sondehub.org/U3130972 & https://radiosondy.info/sonde
PU1XMG-14U31309722022-12-06 00:09:09-22.8107-43.247717830439Clb=6.5m/s t=26.0C h=-1.0% p=-1.0hPa 405.301 MHz Type=RS41 ser=U3130972 Rastreio por PU1XMG https://sondehub.org/U3130972 & https://radiosondy.info/sonde.php?